< < Back
Terminal Aerodrome Forecast


Current Version              Previous Versions:   1  2  3  4  5  6  7  8  9  

Terminal Aerodrome Forecast

678
FTUS42 KTAE 101120
TAFDHN
TAF
KDHN 101120Z 1012/1112 30009KT P6SM SKC
     FM101500 29015G22KT P6SM SKC
     FM110000 25005KT P6SM SKC=

Latest METAR

181
SAUS70 KWBC 102200 RRG
MTRDHN
METAR KDHN 102153Z 29013G18KT 10SM CLR 09/M13 A3024 RMK AO2 SLP239
T00891128


USA.gov is the U.S. government's official web portal to all federal, state and local government web resources and services.